Genoa, Wisconsin
Current Conditions -  °F | °C
As of 9:55 PM on Sunday 23 Nov 2014 (Local Time) from KY51 Reporting Station
Overcast Overcast  
Wind Chill: 44°   Ceiling: 300
Heat Index: 44°   Visibility: 0.25mi
Dew Point: 44°   Wind: 0mph
Humidity: 100%   Direction: NA
Pressure: 29.2"   Gusts: NA
Location:  43.58°N, 91.22°W
Report Text: KY51 240355Z AUTO 00000KT 1/4SM OVC003 07/07 A2920 RMK AO1 T00690069
Loading
Personal Weather Stations






























Interactive Weather Map New forecast layout! Learn more

10-Day Weather Forecast

Advertisements
Track Severe Weather on mobile